Time;durP1;ratioP1;P1;durP2;ratioP2;P2;SDS_P1;SDS_P2;PMS_P1;PMS_P2;Temp;Humidity;BMP_temperature;BMP_pressure;BME280_temperature;BME280_humidity;BME280_pressure;Samples;Min_cycle;Max_cycle;Signal;HPM_P1;HPM_P2
2023/10/12 00:02:09;;;;;;;14.63;1.13;;;;;;;;;;5076519;28;20055;-66
2023/10/12 00:04:38;;;;;;;13.23;1.33;;;;;;;;;;5075891;28;20044;-68
2023/10/12 00:07:17;;;;;;;6.85;1.23;;;;;;;;;;5075627;28;20053;-67
2023/10/12 00:10:00;;;;;;;12.38;0.90;;;;;;;;;;5074351;28;20048;-67
2023/10/12 00:12:26;;;;;;;10.68;1.20;;;;;;;;;;5075324;28;20059;-68
2023/10/12 00:14:56;;;;;;;10.97;1.10;;;;;;;;;;5073663;28;20083;-68
2023/10/12 00:17:26;;;;;;;12.52;1.52;;;;;;;;;;5075168;28;20048;-68
2023/10/12 00:19:53;;;;;;;7.60;0.95;;;;;;;;;;5075833;28;20056;-68
2023/10/12 00:22:19;;;;;;;9.50;0.85;;;;;;;;;;5075281;28;20052;-67
2023/10/12 00:24:45;;;;;;;10.27;1.00;;;;;;;;;;5108827;28;20053;-67
2023/10/12 00:27:14;;;;;;;9.13;0.85;;;;;;;;;;5075097;28;20111;-67
2023/10/12 00:29:40;;;;;;;11.82;1.13;;;;;;;;;;5075154;28;20056;-66
2023/10/12 00:32:07;;;;;;;10.93;1.08;;;;;;;;;;5075064;28;20049;-67
2023/10/12 00:34:53;;;;;;;11.75;1.30;;;;;;;;;;5073952;28;20049;-67
2023/10/12 00:37:19;;;;;;;8.27;1.17;;;;;;;;;;5075459;28;20060;-68
2023/10/12 00:39:56;;;;;;;6.70;1.02;;;;;;;;;;5075436;28;20048;-67
2023/10/12 00:42:29;;;;;;;9.00;1.30;;;;;;;;;;5075579;28;20044;-67
2023/10/12 00:44:55;;;;;;;9.02;1.00;;;;;;;;;;5075178;28;20044;-72
2023/10/12 00:50:11;;;;;;;11.88;1.42;;;;;;;;;;5077709;28;20049;-67
2023/10/12 00:52:52;;;;;;;11.80;1.02;;;;;;;;;;5058445;28;20185;-69
2023/10/12 00:55:21;;;;;;;9.63;1.25;;;;;;;;;;5074545;28;20082;-68
2023/10/12 00:57:51;;;;;;;13.88;1.35;;;;;;;;;;5075123;28;20044;-69
2023/10/12 01:00:18;;;;;;;16.35;1.75;;;;;;;;;;5074402;28;20508;-69
2023/10/12 01:03:07;;;;;;;11.00;1.17;;;;;;;;;;5074477;28;20041;-68
2023/10/12 01:05:35;;;;;;;16.52;1.65;;;;;;;;;;5075191;28;20071;-68
2023/10/12 01:08:05;;;;;;;12.98;1.52;;;;;;;;;;5074117;28;20480;-70
2023/10/12 01:10:33;;;;;;;14.02;1.58;;;;;;;;;;5074531;28;20443;-68
2023/10/12 01:13:02;;;;;;;14.25;1.75;;;;;;;;;;5074318;28;20123;-71
2023/10/12 01:15:31;;;;;;;11.32;1.27;;;;;;;;;;5074383;28;20091;-69
2023/10/12 01:17:57;;;;;;;9.60;1.05;;;;;;;;;;5056721;28;20066;-69
2023/10/12 01:20:26;;;;;;;16.00;1.45;;;;;;;;;;5056489;28;20040;-69
2023/10/12 01:22:57;;;;;;;12.35;1.38;;;;;;;;;;5074324;28;20106;-68
2023/10/12 01:25:29;;;;;;;12.07;1.50;;;;;;;;;;5074076;28;20049;-69
2023/10/12 01:27:55;;;;;;;15.43;1.67;;;;;;;;;;5074747;28;20044;-69
2023/10/12 01:30:22;;;;;;;11.63;1.73;;;;;;;;;;5074075;28;20045;-69
2023/10/12 01:32:57;;;;;;;20.58;1.42;;;;;;;;;;5073020;28;20045;-68
2023/10/12 01:35:33;;;;;;;11.65;1.35;;;;;;;;;;5072946;28;20075;-70
2023/10/12 01:38:08;;;;;;;15.53;1.40;;;;;;;;;;5075030;28;20048;-71
2023/10/12 01:43:30;;;;;;;17.73;1.70;;;;;;;;;;5068732;28;20049;-68
2023/10/12 01:46:05;;;;;;;14.25;1.50;;;;;;;;;;5073163;28;20500;-67
2023/10/12 01:48:33;;;;;;;12.93;1.65;;;;;;;;;;5074322;28;20118;-68
2023/10/12 01:51:19;;;;;;;11.52;1.80;;;;;;;;;;5073625;28;20060;-68
2023/10/12 01:53:45;;;;;;;17.85;2.50;;;;;;;;;;5072610;28;20056;-68
2023/10/12 01:56:13;;;;;;;19.20;2.45;;;;;;;;;;5073748;28;20099;-68
2023/10/12 01:58:43;;;;;;;15.75;1.92;;;;;;;;;;5056218;28;20048;-69
2023/10/12 02:01:18;;;;;;;9.93;1.80;;;;;;;;;;5074128;28;20052;-69
2023/10/12 02:03:44;;;;;;;15.02;2.00;;;;;;;;;;5073693;28;20122;-68
2023/10/12 02:06:16;;;;;;;17.58;2.28;;;;;;;;;;5073718;28;20087;-68
2023/10/12 02:08:46;;;;;;;13.75;1.80;;;;;;;;;;5074455;28;20427;-67
2023/10/12 02:13:47;;;;;;;14.02;2.05;;;;;;;;;;5073749;28;20374;-68
2023/10/12 02:16:15;;;;;;;18.73;1.98;;;;;;;;;;5073349;28;20052;-68
2023/10/12 02:18:47;;;;;;;17.70;1.80;;;;;;;;;;5072294;28;20135;-68
2023/10/12 02:21:18;;;;;;;17.05;2.67;;;;;;;;;;5073486;28;20044;-67
2023/10/12 02:23:54;;;;;;;13.93;2.30;;;;;;;;;;5072786;28;20106;-69
2023/10/12 02:26:28;;;;;;;11.80;2.17;;;;;;;;;;5073281;28;20048;-68
2023/10/12 02:31:39;;;;;;;16.38;2.22;;;;;;;;;;5073360;28;20083;-69
2023/10/12 02:34:17;;;;;;;16.58;2.25;;;;;;;;;;5073281;28;20047;-69
2023/10/12 02:39:42;;;;;;;19.40;2.47;;;;;;;;;;5077825;28;20052;-68
2023/10/12 02:47:23;;;;;;;13.35;1.83;;;;;;;;;;5077169;28;20056;-68
2023/10/12 02:49:49;;;;;;;12.85;2.03;;;;;;;;;;5075967;28;20091;-69
2023/10/12 02:52:16;;;;;;;17.97;2.53;;;;;;;;;;5076655;28;20127;-68
2023/10/12 02:54:50;;;;;;;13.38;2.20;;;;;;;;;;5077037;28;20058;-68
2023/10/12 02:57:22;;;;;;;18.92;2.03;;;;;;;;;;5077942;28;20048;-68
2023/10/12 02:59:56;;;;;;;11.98;1.83;;;;;;;;;;5077164;28;20098;-69
2023/10/12 03:02:23;;;;;;;20.90;2.22;;;;;;;;;;5077816;28;20398;-68
2023/10/12 03:04:49;;;;;;;18.50;1.98;;;;;;;;;;5077018;28;20094;-69
2023/10/12 03:07:22;;;;;;;12.90;1.92;;;;;;;;;;5075301;28;20504;-67
2023/10/12 03:09:56;;;;;;;15.65;2.38;;;;;;;;;;5076163;28;20392;-68
2023/10/12 03:12:26;;;;;;;19.92;2.72;;;;;;;;;;5077124;28;20063;-69
2023/10/12 03:14:52;;;;;;;19.40;2.53;;;;;;;;;;5076902;28;20392;-68
2023/10/12 03:17:19;;;;;;;15.80;2.35;;;;;;;;;;5081297;28;20071;-67
2023/10/12 03:19:55;;;;;;;17.40;2.35;;;;;;;;;;5083981;28;20040;-67
2023/10/12 03:22:34;;;;;;;19.23;2.08;;;;;;;;;;5077160;28;20048;-69
2023/10/12 03:25:37;;;;;;;11.52;1.92;;;;;;;;;;5077499;28;20055;-68
2023/10/12 03:27:53;;;;;;;15.98;2.92;;;;;;;;;;5076438;28;20059;-69
2023/10/12 03:30:34;;;;;;;16.25;2.78;;;;;;;;;;5076492;28;20131;-70
2023/10/12 03:33:02;;;;;;;17.17;2.92;;;;;;;;;;5076603;28;20373;-68
2023/10/12 03:35:40;;;;;;;15.50;3.13;;;;;;;;;;5076323;28;20491;-69
2023/10/12 03:38:12;;;;;;;17.83;4.05;;;;;;;;;;5076237;28;20048;-69
2023/10/12 03:43:19;;;;;;;20.13;3.97;;;;;;;;;;5076055;28;20048;-68
2023/10/12 03:46:27;;;;;;;24.48;4.10;;;;;;;;;;5076281;28;20191;-68
2023/10/12 03:51:41;;;;;;;23.25;3.63;;;;;;;;;;5063725;28;20044;-69
2023/10/12 03:54:29;;;;;;;21.25;4.75;;;;;;;;;;5076759;28;20461;-68
2023/10/12 03:57:19;;;;;;;14.70;3.78;;;;;;;;;;5074701;28;20057;-68
2023/10/12 03:59:58;;;;;;;24.67;4.25;;;;;;;;;;5076741;28;20048;-68
2023/10/12 04:02:24;;;;;;;25.60;4.38;;;;;;;;;;5075625;28;20087;-69
2023/10/12 04:05:15;;;;;;;19.58;4.22;;;;;;;;;;5058209;28;20045;-68
2023/10/12 04:08:00;;;;;;;19.92;4.03;;;;;;;;;;5076130;28;20461;-68
2023/10/12 04:13:55;;;;;;;17.05;4.13;;;;;;;;;;5074626;28;20044;-68
2023/10/12 04:18:33;;;;;;;18.33;4.40;;;;;;;;;;5075196;28;20048;-68
2023/10/12 04:21:02;;;;;;;22.17;4.53;;;;;;;;;;5074536;28;20320;-68
2023/10/12 04:26:37;;;;;;;23.48;4.32;;;;;;;;;;5075958;28;20071;-67
2023/10/12 04:28:58;;;;;;;26.52;4.47;;;;;;;;;;5073822;28;20048;-67
2023/10/12 04:39:11;;;;;;;24.23;4.78;;;;;;;;;;5074046;28;20396;-68
2023/10/12 04:41:38;;;;;;;27.20;3.88;;;;;;;;;;5074243;28;20056;-68
2023/10/12 04:46:59;;;;;;;27.73;4.60;;;;;;;;;;5073771;28;20056;-68
2023/10/12 04:57:32;;;;;;;17.25;4.90;;;;;;;;;;5074879;28;20052;-68
2023/10/12 05:07:54;;;;;;;14.15;3.20;;;;;;;;;;5073910;28;20476;-68
2023/10/12 05:10:31;;;;;;;20.80;3.22;;;;;;;;;;5073868;28;20384;-68
2023/10/12 05:13:03;;;;;;;;;;;;;;;;;;5075010;28;20384;-67
2023/10/12 05:15:39;;;;;;;21.35;3.70;;;;;;;;;;5074054;28;20272;-67
2023/10/12 05:18:06;;;;;;;16.13;3.08;;;;;;;;;;5074361;28;20051;-68
2023/10/12 05:20:32;;;;;;;19.13;3.22;;;;;;;;;;5073297;28;20058;-71
2023/10/12 05:22:58;;;;;;;21.50;3.03;;;;;;;;;;5074107;28;20094;-67
2023/10/12 05:25:33;;;;;;;23.48;3.15;;;;;;;;;;5073667;28;20048;-68
2023/10/12 05:28:08;;;;;;;17.70;3.17;;;;;;;;;;5074117;28;20171;-68
2023/10/12 05:30:37;;;;;;;22.80;3.53;;;;;;;;;;5074402;28;20044;-68
2023/10/12 05:33:05;;;;;;;15.43;3.28;;;;;;;;;;5072694;28;20056;-67
2023/10/12 05:35:52;;;;;;;15.13;2.70;;;;;;;;;;5074131;28;20461;-68
2023/10/12 05:38:18;;;;;;;15.63;3.28;;;;;;;;;;5073912;28;20055;-68
2023/10/12 05:40:53;;;;;;;22.13;3.90;;;;;;;;;;5074077;28;20126;-68
2023/10/12 05:43:22;;;;;;;17.67;3.38;;;;;;;;;;5074716;28;20129;-68
2023/10/12 05:45:49;;;;;;;25.85;3.83;;;;;;;;;;5075586;28;20052;-69
2023/10/12 05:48:19;;;;;;;23.67;3.63;;;;;;;;;;5073560;28;20048;-67
2023/10/12 05:50:49;;;;;;;19.60;2.95;;;;;;;;;;5073914;28;20086;-68
2023/10/12 05:53:16;;;;;;;22.48;3.40;;;;;;;;;;5073025;28;20433;-68
2023/10/12 05:55:44;;;;;;;28.10;3.90;;;;;;;;;;5073597;28;20401;-68
2023/10/12 05:58:15;;;;;;;21.83;3.38;;;;;;;;;;5073412;28;20439;-68
2023/10/12 06:00:45;;;;;;;21.15;3.90;;;;;;;;;;5072784;28;20084;-67
2023/10/12 06:03:15;;;;;;;17.40;3.42;;;;;;;;;;5073594;28;20477;-67
2023/10/12 06:05:45;;;;;;;18.88;3.13;;;;;;;;;;5074065;28;20123;-68
2023/10/12 06:08:12;;;;;;;17.25;3.63;;;;;;;;;;5072700;28;20060;-68
2023/10/12 06:10:41;;;;;;;24.65;4.07;;;;;;;;;;5073948;28;20489;-68
2023/10/12 06:13:14;;;;;;;22.27;3.72;;;;;;;;;;5072568;28;20036;-67
2023/10/12 06:15:42;;;;;;;22.10;3.47;;;;;;;;;;5073813;28;20094;-68
2023/10/12 06:18:21;;;;;;;22.50;3.85;;;;;;;;;;5072286;28;20135;-67
2023/10/12 06:20:47;;;;;;;17.92;3.33;;;;;;;;;;5073135;28;20098;-68
2023/10/12 06:23:15;;;;;;;20.13;3.60;;;;;;;;;;5071952;28;20041;-67
2023/10/12 06:25:44;;;;;;;20.70;3.55;;;;;;;;;;5071962;28;20331;-68
2023/10/12 06:28:16;;;;;;;20.55;2.78;;;;;;;;;;5073231;28;20052;-68
2023/10/12 06:30:43;;;;;;;14.40;2.42;;;;;;;;;;5073111;28;20105;-69
2023/10/12 06:33:13;;;;;;;22.38;3.13;;;;;;;;;;5073041;28;20044;-68
2023/10/12 06:35:58;;;;;;;14.10;3.50;;;;;;;;;;5073127;28;20056;-68
2023/10/12 06:41:57;;;;;;;26.13;3.85;;;;;;;;;;5073674;28;20473;-68
2023/10/12 06:46:48;;;;;;;17.20;3.33;;;;;;;;;;5073120;28;20048;-69
2023/10/12 06:49:28;;;;;;;14.00;3.30;;;;;;;;;;5072372;28;20091;-68
2023/10/12 06:52:00;;;;;;;20.35;4.03;;;;;;;;;;5055385;28;20037;-67
2023/10/12 07:02:42;;;;;;;18.83;3.30;;;;;;;;;;5053191;28;20053;-69
2023/10/12 07:05:09;;;;;;;17.73;3.20;;;;;;;;;;5073627;28;20392;-68
2023/10/12 07:07:41;;;;;;;21.60;3.37;;;;;;;;;;5072248;28;20119;-69
2023/10/12 07:12:43;;;;;;;25.58;4.07;;;;;;;;;;5072352;28;20044;-68
2023/10/12 07:15:14;;;;;;;17.20;3.22;;;;;;;;;;5073104;28;20095;-67
2023/10/12 07:17:48;;;;;;;19.67;3.60;;;;;;;;;;5071754;28;20052;-68
2023/10/12 07:20:25;;;;;;;25.60;3.72;;;;;;;;;;5072713;28;20099;-67
2023/10/12 07:22:51;;;;;;;;;;;;;;;;;;5073911;28;20048;-68
2023/10/12 07:25:23;;;;;;;19.27;3.70;;;;;;;;;;5076268;28;19926;-67
2023/10/12 07:27:51;;;;;;;21.63;3.65;;;;;;;;;;5076434;28;20278;-67
2023/10/12 07:33:07;;;;;;;23.98;4.93;;;;;;;;;;5076632;28;20071;-67
2023/10/12 07:35:38;;;;;;;20.80;5.88;;;;;;;;;;5076061;28;20056;-68
2023/10/12 07:38:26;;;;;;;23.15;6.47;;;;;;;;;;5075439;28;20172;-68
2023/10/12 07:43:20;;;;;;;25.92;6.47;;;;;;;;;;5076817;28;20128;-67
2023/10/12 07:45:49;;;;;;;28.03;8.00;;;;;;;;;;5074796;28;20052;-69
2023/10/12 07:48:39;;;;;;;31.13;9.05;;;;;;;;;;5076005;28;20040;-68
2023/10/12 07:51:16;;;;;;;27.70;8.25;;;;;;;;;;5076207;28;20101;-69
2023/10/12 07:53:43;;;;;;;19.48;6.60;;;;;;;;;;5075960;28;20052;-68
2023/10/12 07:56:15;;;;;;;24.40;7.78;;;;;;;;;;5076187;28;20045;-67
2023/10/12 07:58:42;;;;;;;19.35;5.03;;;;;;;;;;5075870;28;20098;-67
2023/10/12 08:03:58;;;;;;;14.60;4.70;;;;;;;;;;5075888;28;20094;-67
2023/10/12 08:09:21;;;;;;;17.25;4.68;;;;;;;;;;5076158;28;20055;-69
2023/10/12 08:11:47;;;;;;;17.50;3.65;;;;;;;;;;5075958;28;20053;-69
2023/10/12 08:19:55;;;;;;;16.17;2.95;;;;;;;;;;5063260;28;20055;-68
2023/10/12 08:22:29;;;;;;;18.65;3.17;;;;;;;;;;5074712;28;20045;-68
2023/10/12 08:25:04;;;;;;;22.20;3.17;;;;;;;;;;5075459;28;20087;-69
2023/10/12 08:30:48;;;;;;;14.88;2.85;;;;;;;;;;5074914;28;20488;-68
2023/10/12 08:33:14;;;;;;;14.57;3.00;;;;;;;;;;5075939;28;20461;-67
2023/10/12 08:36:23;;;;;;;20.90;2.80;;;;;;;;;;5074262;28;20074;-67
2023/10/12 08:38:54;;;;;;;17.98;3.47;;;;;;;;;;5073636;28;20055;-68
2023/10/12 08:43:52;;;;;;;21.60;3.67;;;;;;;;;;5074955;28;20045;-68
2023/10/12 08:49:34;;;;;;;11.10;2.93;;;;;;;;;;5036750;28;20049;-67
2023/10/12 08:52:15;;;;;;;14.50;3.37;;;;;;;;;;5052529;28;20321;-67
2023/10/12 08:54:42;;;;;;;14.60;2.70;;;;;;;;;;5059504;28;20326;-67
2023/10/12 08:57:12;;;;;;;16.15;2.88;;;;;;;;;;5074561;28;20160;-67
2023/10/12 08:59:39;;;;;;;13.65;3.28;;;;;;;;;;5074696;28;20087;-68
2023/10/12 09:02:19;;;;;;;22.58;3.28;;;;;;;;;;5057165;28;20051;-68
2023/10/12 09:04:49;;;;;;;18.35;3.70;;;;;;;;;;5074942;28;20119;-69
2023/10/12 09:07:19;;;;;;;20.90;3.65;;;;;;;;;;5074147;28;20473;-68
2023/10/12 09:09:49;;;;;;;16.95;3.38;;;;;;;;;;5073628;28;20396;-68
2023/10/12 09:12:19;;;;;;;22.55;4.07;;;;;;;;;;5074373;28;20048;-67
2023/10/12 09:14:46;;;;;;;17.67;3.80;;;;;;;;;;5075260;28;20127;-68
2023/10/12 09:17:27;;;;;;;16.83;3.90;;;;;;;;;;5056366;28;20049;-67
2023/10/12 09:20:09;;;;;;;18.08;4.10;;;;;;;;;;5072971;28;20154;-67
2023/10/12 09:22:37;;;;;;;15.73;3.55;;;;;;;;;;5074840;28;20432;-69
2023/10/12 09:25:05;;;;;;;15.95;3.38;;;;;;;;;;5074117;28;20131;-68
2023/10/12 09:27:48;;;;;;;23.23;3.83;;;;;;;;;;5074098;28;20052;-68
2023/10/12 09:30:18;;;;;;;13.32;3.42;;;;;;;;;;5074107;28;20050;-68
2023/10/12 09:35:40;;;;;;;15.98;4.07;;;;;;;;;;5073132;28;20477;-68
2023/10/12 09:38:06;;;;;;;14.40;2.88;;;;;;;;;;5074123;28;20496;-68
2023/10/12 09:40:39;;;;;;;18.33;3.50;;;;;;;;;;5073230;28;20087;-70
2023/10/12 09:43:12;;;;;;;15.65;3.10;;;;;;;;;;5073652;28;20578;-69
2023/10/12 09:45:42;;;;;;;14.57;3.15;;;;;;;;;;5072454;28;20135;-68
2023/10/12 09:48:12;;;;;;;15.27;3.20;;;;;;;;;;5073430;28;20477;-68
2023/10/12 09:50:40;;;;;;;17.92;3.25;;;;;;;;;;5073801;28;20048;-69
2023/10/12 09:53:12;;;;;;;14.68;2.80;;;;;;;;;;5072288;28;20147;-68
2023/10/12 09:55:40;;;;;;;11.60;2.75;;;;;;;;;;5073574;28;20535;-69
2023/10/12 09:58:22;;;;;;;12.95;2.20;;;;;;;;;;5073596;28;20097;-70
2023/10/12 10:01:01;;;;;;;10.68;2.42;;;;;;;;;;5074052;28;20083;-69
2023/10/12 10:03:47;;;;;;;13.95;2.45;;;;;;;;;;5073805;28;20473;-68
2023/10/12 10:06:28;;;;;;;15.95;2.42;;;;;;;;;;5072560;28;20087;-69
2023/10/12 10:09:18;;;;;;;10.27;1.73;;;;;;;;;;5074271;28;20048;-69
2023/10/12 10:11:45;;;;;;;16.17;2.35;;;;;;;;;;5072586;28;20059;-69
2023/10/12 10:14:20;;;;;;;13.85;1.70;;;;;;;;;;5073325;28;20439;-69
2023/10/12 10:16:46;;;;;;;14.70;1.50;;;;;;;;;;5073450;28;20094;-71
2023/10/12 10:19:13;;;;;;;13.15;1.75;;;;;;;;;;5073564;28;20051;-72
2023/10/12 10:22:04;;;;;;;11.02;1.52;;;;;;;;;;5073285;28;20048;-69
2023/10/12 10:24:55;;;;;;;12.70;1.27;;;;;;;;;;5073118;28;20045;-69
2023/10/12 10:27:27;;;;;;;13.27;1.30;;;;;;;;;;5072029;28;20353;-71
2023/10/12 10:29:53;;;;;;;10.57;1.15;;;;;;;;;;5072570;28;20452;-69
2023/10/12 10:32:32;;;;;;;13.05;1.58;;;;;;;;;;5073200;28;20045;-69
2023/10/12 10:34:59;;;;;;;14.63;1.45;;;;;;;;;;5073424;28;20107;-68
2023/10/12 10:37:39;;;;;;;16.17;1.52;;;;;;;;;;5073148;28;20044;-70
2023/10/12 10:40:08;;;;;;;10.60;1.30;;;;;;;;;;5073662;28;20041;-71
2023/10/12 10:42:36;;;;;;;11.93;1.27;;;;;;;;;;5073697;28;20047;-69
2023/10/12 10:45:15;;;;;;;18.10;1.85;;;;;;;;;;5076951;28;20055;-70
2023/10/12 10:47:49;;;;;;;13.35;1.13;;;;;;;;;;5076792;28;20074;-70
2023/10/12 10:50:15;;;;;;;18.58;1.75;;;;;;;;;;5072778;28;20056;-71
2023/10/12 10:52:44;;;;;;;16.55;1.40;;;;;;;;;;5073568;28;20048;-70
2023/10/12 10:55:11;;;;;;;17.08;1.55;;;;;;;;;;5074584;28;20131;-69
2023/10/12 10:57:38;;;;;;;15.35;2.05;;;;;;;;;;5074557;28;20048;-70
2023/10/12 11:00:11;;;;;;;10.95;1.40;;;;;;;;;;5077780;28;20044;-70
2023/10/12 11:02:38;;;;;;;14.23;1.75;;;;;;;;;;5075649;28;20056;-70
2023/10/12 11:05:10;;;;;;;13.25;1.70;;;;;;;;;;5076929;28;20045;-69
2023/10/12 11:07:37;;;;;;;21.83;2.17;;;;;;;;;;5076775;28;20083;-71
2023/10/12 11:12:31;;;;;;;19.30;2.15;;;;;;;;;;5075694;28;20237;-70
2023/10/12 11:15:01;;;;;;;13.93;2.42;;;;;;;;;;5075352;28;20056;-71
2023/10/12 11:17:35;;;;;;;17.35;2.63;;;;;;;;;;5076688;28;20159;-71
2023/10/12 11:20:08;;;;;;;17.63;2.58;;;;;;;;;;5043924;28;20046;-70
2023/10/12 11:22:37;;;;;;;12.82;2.50;;;;;;;;;;5077203;28;20036;-70
2023/10/12 11:25:04;;;;;;;14.07;2.40;;;;;;;;;;5076606;28;20472;-70
2023/10/12 11:27:34;;;;;;;20.10;2.72;;;;;;;;;;5076612;28;20079;-69
2023/10/12 11:30:00;;;;;;;19.17;3.50;;;;;;;;;;5076945;28;20407;-71
2023/10/12 11:32:32;;;;;;;24.05;2.75;;;;;;;;;;5058733;28;20049;-70
2023/10/12 11:35:02;;;;;;;17.27;2.58;;;;;;;;;;5077088;28;20116;-70
2023/10/12 11:37:29;;;;;;;15.00;2.20;;;;;;;;;;5075114;28;20040;-70
2023/10/12 11:39:55;;;;;;;;;;;;;;;;;;5076591;28;20388;-70
2023/10/12 11:42:21;;;;;;;15.57;1.55;;;;;;;;;;5075160;28;20249;-70
2023/10/12 11:44:51;;;;;;;17.05;1.00;;;;;;;;;;5076073;28;20041;-70
2023/10/12 11:47:23;;;;;;;18.17;1.60;;;;;;;;;;5076861;28;20048;-69
2023/10/12 11:49:55;;;;;;;13.80;1.00;;;;;;;;;;5075977;28;20043;-71
2023/10/12 11:52:32;;;;;;;13.15;1.30;;;;;;;;;;5076448;28;20161;-69
2023/10/12 11:55:18;;;;;;;13.02;1.35;;;;;;;;;;5076182;28;20465;-69
2023/10/12 11:57:45;;;;;;;9.70;1.20;;;;;;;;;;5075968;28;20123;-70
2023/10/12 12:00:21;;;;;;;14.18;1.92;;;;;;;;;;5075986;28;20047;-69
2023/10/12 12:02:57;;;;;;;13.48;1.33;;;;;;;;;;5075335;28;20130;-68
2023/10/12 12:05:25;;;;;;;11.95;0.95;;;;;;;;;;5076022;28;20040;-70
2023/10/12 12:07:51;;;;;;;14.25;1.25;;;;;;;;;;5078167;28;20048;-71
2023/10/12 12:10:26;;;;;;;15.65;1.20;;;;;;;;;;5073951;28;20102;-71
2023/10/12 12:12:52;;;;;;;11.00;1.25;;;;;;;;;;5074616;28;20040;-69
2023/10/12 12:15:19;;;;;;;15.65;1.80;;;;;;;;;;5075997;28;20106;-70
2023/10/12 12:17:46;;;;;;;19.88;1.95;;;;;;;;;;5041377;28;20036;-70
2023/10/12 12:20:20;;;;;;;15.25;1.25;;;;;;;;;;5074039;28;20477;-69
2023/10/12 12:22:47;;;;;;;19.45;1.80;;;;;;;;;;5075434;28;20051;-70
2023/10/12 12:25:20;;;;;;;16.25;1.75;;;;;;;;;;5075735;28;20504;-68
2023/10/12 12:27:48;;;;;;;16.10;1.65;;;;;;;;;;5075613;28;20381;-69
2023/10/12 12:30:24;;;;;;;15.48;1.20;;;;;;;;;;5075259;28;20049;-69
2023/10/12 12:32:50;;;;;;;11.25;1.33;;;;;;;;;;5075069;28;20049;-70
2023/10/12 12:35:16;;;;;;;13.15;1.27;;;;;;;;;;5075518;28;20498;-69
2023/10/12 12:37:42;;;;;;;14.35;2.15;;;;;;;;;;5056910;28;20082;-68
2023/10/12 12:40:29;;;;;;;19.65;2.80;;;;;;;;;;5073776;28;20392;-68
2023/10/12 12:42:55;;;;;;;16.45;3.60;;;;;;;;;;5075501;28;20053;-69
2023/10/12 12:45:21;;;;;;;21.50;9.27;;;;;;;;;;5073740;28;20040;-69
2023/10/12 12:47:47;;;;;;;17.33;2.90;;;;;;;;;;5074899;28;20635;-68
2023/10/12 12:50:13;;;;;;;15.18;1.88;;;;;;;;;;5074839;28;20135;-69
2023/10/12 12:52:46;;;;;;;15.57;1.73;;;;;;;;;;5074986;28;20060;-67
2023/10/12 12:55:16;;;;;;;16.17;1.90;;;;;;;;;;5075352;28;20044;-70
2023/10/12 12:57:43;;;;;;;18.60;4.68;;;;;;;;;;5074419;28;20567;-68
2023/10/12 13:00:10;;;;;;;15.32;4.07;;;;;;;;;;5074609;28;20087;-68
2023/10/12 13:02:36;;;;;;;22.70;3.05;;;;;;;;;;5074555;28;20060;-71
2023/10/12 13:05:07;;;;;;;17.15;2.67;;;;;;;;;;5075033;28;20048;-68
2023/10/12 13:07:34;;;;;;;16.33;2.80;;;;;;;;;;5075123;28;20051;-69
2023/10/12 13:10:00;;;;;;;16.60;2.50;;;;;;;;;;5074344;28;20049;-68
2023/10/12 13:12:31;;;;;;;21.07;3.30;;;;;;;;;;5073639;28;20468;-68
2023/10/12 13:15:00;;;;;;;19.88;5.97;;;;;;;;;;5074506;28;20096;-67
2023/10/12 13:17:32;;;;;;;16.50;6.20;;;;;;;;;;5075955;28;20190;-68
2023/10/12 13:19:58;;;;;;;20.15;6.28;;;;;;;;;;5074640;28;20040;-68
2023/10/12 13:22:25;;;;;;;18.17;4.75;;;;;;;;;;5074088;28;20051;-69
2023/10/12 13:24:56;;;;;;;;;;;;;;;;;;5074536;28;20133;-68
2023/10/12 13:27:32;;;;;;;16.23;3.05;;;;;;;;;;5074127;28;19927;-68
2023/10/12 13:30:09;;;;;;;17.38;4.50;;;;;;;;;;5074592;28;20098;-66
2023/10/12 13:32:36;;;;;;;22.13;3.50;;;;;;;;;;5074054;28;20048;-69
2023/10/12 13:35:17;;;;;;;19.58;4.10;;;;;;;;;;5072583;28;20044;-69
2023/10/12 13:37:44;;;;;;;21.23;5.53;;;;;;;;;;5073949;28;20087;-66
2023/10/12 13:40:15;;;;;;;15.43;4.18;;;;;;;;;;5073949;28;20366;-66
2023/10/12 13:42:41;;;;;;;25.83;5.45;;;;;;;;;;5073049;28;20048;-72
2023/10/12 13:45:12;;;;;;;29.00;12.27;;;;;;;;;;5107294;28;20500;-66
2023/10/12 13:47:40;;;;;;;22.38;7.05;;;;;;;;;;5074391;28;20048;-69
2023/10/12 13:50:10;;;;;;;17.65;4.53;;;;;;;;;;5074011;28;20256;-69
2023/10/12 13:52:37;;;;;;;18.77;4.50;;;;;;;;;;5074293;28;20492;-69
2023/10/12 13:55:11;;;;;;;15.50;3.90;;;;;;;;;;5073816;28;20131;-68
2023/10/12 13:57:37;;;;;;;16.27;4.40;;;;;;;;;;5073985;28;20094;-69
2023/10/12 14:00:04;;;;;;;20.40;4.72;;;;;;;;;;5073719;28;20101;-67
2023/10/12 14:02:30;;;;;;;20.25;4.13;;;;;;;;;;5074186;28;20083;-70
2023/10/12 14:04:58;;;;;;;15.38;4.55;;;;;;;;;;5072271;28;20132;-69
2023/10/12 14:07:24;;;;;;;22.35;5.45;;;;;;;;;;5073221;28;20051;-68
2023/10/12 14:09:50;;;;;;;22.98;4.50;;;;;;;;;;5072346;28;20044;-67
2023/10/12 14:12:16;;;;;;;19.20;5.13;;;;;;;;;;5073512;28;20053;-71
2023/10/12 14:14:42;;;;;;;18.10;4.80;;;;;;;;;;5072338;28;20040;-69
2023/10/12 14:17:10;;;;;;;21.80;5.13;;;;;;;;;;5074404;28;20044;-68
2023/10/12 14:19:36;;;;;;;32.55;15.02;;;;;;;;;;5073138;28;20529;-68
2023/10/12 14:22:04;;;;;;;27.05;8.32;;;;;;;;;;5073233;28;20101;-68
2023/10/12 14:24:33;;;;;;;17.60;5.18;;;;;;;;;;5073281;28;20115;-68
2023/10/12 14:27:00;;;;;;;19.98;5.18;;;;;;;;;;5073056;28;20048;-70
2023/10/12 14:29:29;;;;;;;20.15;4.90;;;;;;;;;;5073201;28;20045;-69
2023/10/12 14:31:56;;;;;;;16.40;4.68;;;;;;;;;;5072114;28;20057;-69
2023/10/12 14:34:22;;;;;;;17.08;4.72;;;;;;;;;;5058797;28;20048;-68
2023/10/12 14:36:49;;;;;;;24.13;4.38;;;;;;;;;;5077182;28;20064;-69
2023/10/12 14:39:23;;;;;;;17.33;4.25;;;;;;;;;;5077378;28;20079;-68
2023/10/12 14:41:49;;;;;;;18.17;3.90;;;;;;;;;;5077457;28;20049;-70
2023/10/12 14:44:16;;;;;;;23.75;3.47;;;;;;;;;;5077225;28;20084;-69
2023/10/12 14:46:44;;;;;;;22.33;3.35;;;;;;;;;;5077125;28;20051;-68
2023/10/12 14:49:11;;;;;;;18.27;3.88;;;;;;;;;;5075932;28;20386;-68
2023/10/12 14:51:37;;;;;;;15.60;4.68;;;;;;;;;;5076705;28;20040;-69
2023/10/12 14:54:06;;;;;;;24.05;5.32;;;;;;;;;;5075439;28;20061;-70
2023/10/12 14:56:32;;;;;;;17.00;4.30;;;;;;;;;;5076820;28;20052;-69
2023/10/12 14:58:59;;;;;;;20.60;4.55;;;;;;;;;;5076860;28;20437;-69
2023/10/12 15:01:28;;;;;;;19.53;4.50;;;;;;;;;;5076977;28;20087;-69
2023/10/12 15:03:55;;;;;;;21.80;4.05;;;;;;;;;;5076930;28;20040;-69
2023/10/12 15:06:21;;;;;;;22.55;4.88;;;;;;;;;;5076650;28;20055;-69
2023/10/12 15:08:48;;;;;;;20.90;4.95;;;;;;;;;;5076810;28;20127;-69
2023/10/12 15:11:14;;;;;;;23.65;4.47;;;;;;;;;;5076799;28;20404;-68
2023/10/12 15:13:41;;;;;;;22.20;4.53;;;;;;;;;;5076420;28;20044;-66
2023/10/12 15:16:11;;;;;;;21.77;3.80;;;;;;;;;;5075563;28;20385;-68
2023/10/12 15:18:39;;;;;;;27.60;4.70;;;;;;;;;;5076944;28;20095;-69
2023/10/12 15:21:10;;;;;;;20.33;4.03;;;;;;;;;;5076257;28;20088;-71
2023/10/12 15:23:36;;;;;;;19.38;3.40;;;;;;;;;;5075602;28;20401;-69
2023/10/12 15:26:02;;;;;;;18.53;3.90;;;;;;;;;;5075396;28;20056;-68
2023/10/12 15:28:31;;;;;;;19.40;4.20;;;;;;;;;;5058761;28;20485;-68
2023/10/12 15:30:57;;;;;;;21.27;4.60;;;;;;;;;;5075190;28;20086;-70
2023/10/12 15:33:23;;;;;;;21.35;5.22;;;;;;;;;;5076232;28;20040;-68
2023/10/12 15:35:49;;;;;;;28.10;5.93;;;;;;;;;;5075018;28;20056;-70
2023/10/12 15:38:15;;;;;;;28.52;7.05;;;;;;;;;;5076586;28;20131;-70
2023/10/12 15:40:41;;;;;;;26.02;6.43;;;;;;;;;;5078656;28;20044;-69
2023/10/12 15:43:16;;;;;;;19.70;5.50;;;;;;;;;;5083318;28;20047;-69
2023/10/12 15:45:44;;;;;;;20.77;4.97;;;;;;;;;;5095289;28;20044;-67
2023/10/12 15:48:12;;;;;;;25.73;5.13;;;;;;;;;;5086428;28;20059;-70
2023/10/12 15:50:38;;;;;;;21.20;6.10;;;;;;;;;;5075700;28;20047;-70
2023/10/12 15:53:06;;;;;;;19.55;4.88;;;;;;;;;;5075796;28;20075;-69
2023/10/12 15:55:34;;;;;;;29.42;6.15;;;;;;;;;;5076286;28;20075;-70
2023/10/12 15:58:02;;;;;;;20.73;4.95;;;;;;;;;;5074547;28;20044;-69
2023/10/12 16:00:32;;;;;;;23.73;5.03;;;;;;;;;;5075025;28;20052;-69
2023/10/12 16:03:06;;;;;;;24.83;5.47;;;;;;;;;;5075886;28;20049;-70
2023/10/12 16:05:33;;;;;;;17.55;4.72;;;;;;;;;;5075674;28;20049;-69
2023/10/12 16:08:02;;;;;;;28.50;6.95;;;;;;;;;;5075290;28;20049;-68
2023/10/12 16:10:28;;;;;;;20.83;5.43;;;;;;;;;;5074350;28;20040;-69
2023/10/12 16:12:55;;;;;;;37.63;6.35;;;;;;;;;;5074287;28;20044;-69
2023/10/12 16:15:22;;;;;;;28.73;8.18;;;;;;;;;;5075292;28;20045;-69
2023/10/12 16:17:48;;;;;;;20.77;6.50;;;;;;;;;;5075932;28;20045;-69
2023/10/12 16:20:15;;;;;;;27.92;7.55;;;;;;;;;;5074361;28;20057;-67
2023/10/12 16:22:42;;;;;;;27.42;6.90;;;;;;;;;;5075960;28;20056;-69
2023/10/12 16:25:12;;;;;;;22.98;7.07;;;;;;;;;;5074130;28;20135;-69
2023/10/12 16:27:42;;;;;;;24.48;7.63;;;;;;;;;;5074257;28;20044;-69
2023/10/12 16:30:14;;;;;;;25.60;7.05;;;;;;;;;;5075739;28;20048;-68
2023/10/12 16:32:42;;;;;;;25.65;7.15;;;;;;;;;;5075442;28;20040;-68
2023/10/12 16:35:09;;;;;;;23.63;7.03;;;;;;;;;;5074831;28;20114;-68
2023/10/12 16:37:35;;;;;;;19.23;6.80;;;;;;;;;;5074345;28;20060;-68
2023/10/12 16:40:05;;;;;;;22.05;8.32;;;;;;;;;;5075065;28;20045;-68